createdAt,value
2023-04-20T00:00:11.726Z,10.15
2023-04-20T00:02:39.882Z,10.27
2023-04-20T00:05:08.178Z,10.05
2023-04-20T00:07:36.031Z,9.60
2023-04-20T00:10:04.022Z,9.08
2023-04-20T00:12:31.104Z,9.01
2023-04-20T00:14:58.049Z,9.56
2023-04-20T00:17:24.961Z,9.47
2023-04-20T00:19:52.083Z,9.51
2023-04-20T00:22:18.962Z,9.57
2023-04-20T00:24:45.867Z,9.65
2023-04-20T00:27:12.803Z,9.71
2023-04-20T00:29:39.663Z,9.70
2023-04-20T00:32:06.888Z,9.73
2023-04-20T00:34:33.769Z,9.64
2023-04-20T00:37:00.693Z,9.68
2023-04-20T00:39:27.618Z,9.75
2023-04-20T00:41:54.625Z,9.72
2023-04-20T00:44:21.560Z,9.80
2023-04-20T00:46:48.550Z,9.82
2023-04-20T00:49:15.869Z,9.64
2023-04-20T00:51:43.155Z,9.44
2023-04-20T00:54:10.121Z,9.57
2023-04-20T00:56:38.829Z,9.58
2023-04-20T00:59:06.050Z,9.57
2023-04-20T01:01:33.267Z,9.41
2023-04-20T01:04:00.822Z,9.18
2023-04-20T01:06:28.221Z,9.44
2023-04-20T01:08:55.385Z,9.46
2023-04-20T01:11:22.361Z,9.26
2023-04-20T01:13:50.100Z,8.85
2023-04-20T01:16:17.206Z,8.81
2023-04-20T01:18:46.703Z,9.06
2023-04-20T01:21:15.519Z,9.13
2023-04-20T01:23:43.396Z,9.06
2023-04-20T01:26:12.641Z,9.04
2023-04-20T01:28:40.082Z,9.05
2023-04-20T01:31:08.833Z,8.98
2023-04-20T01:33:36.560Z,9.10
2023-04-20T01:36:04.855Z,9.20
2023-04-20T01:38:33.180Z,9.03
2023-04-20T01:41:00.519Z,9.05
2023-04-20T01:43:27.789Z,9.18
2023-04-20T01:45:54.635Z,9.25
2023-04-20T01:48:21.608Z,9.09
2023-04-20T01:50:52.204Z,9.04
2023-04-20T01:53:19.605Z,9.00
2023-04-20T01:55:46.726Z,8.95
2023-04-20T01:58:13.654Z,9.03
2023-04-20T02:00:40.721Z,8.95
2023-04-20T02:03:07.942Z,8.73
2023-04-20T02:05:35.115Z,8.76
2023-04-20T02:08:02.062Z,7.93
2023-04-20T02:10:29.024Z,8.47
2023-04-20T02:12:55.980Z,8.27
2023-04-20T02:15:22.952Z,8.31
2023-04-20T02:17:52.567Z,8.48
2023-04-20T02:20:22.441Z,8.57
2023-04-20T02:22:49.427Z,8.61
2023-04-20T02:25:16.367Z,8.72
2023-04-20T02:27:43.447Z,8.79
2023-04-20T02:30:10.799Z,8.76
2023-04-20T02:32:37.893Z,8.83
2023-04-20T02:35:05.211Z,8.85
2023-04-20T02:37:32.500Z,8.77
2023-04-20T02:39:59.479Z,8.79
2023-04-20T02:42:26.479Z,8.69
2023-04-20T02:44:53.381Z,8.67
2023-04-20T02:47:20.390Z,8.71
2023-04-20T02:49:47.668Z,8.55
2023-04-20T02:52:14.823Z,8.63
2023-04-20T02:54:41.804Z,8.53
2023-04-20T02:57:08.812Z,8.44
2023-04-20T02:59:35.695Z,8.52
2023-04-20T03:02:02.773Z,8.52
2023-04-20T03:04:31.179Z,8.57
2023-04-20T03:06:58.966Z,8.64
2023-04-20T03:09:25.972Z,8.48
2023-04-20T03:11:52.829Z,8.50
2023-04-20T03:14:19.719Z,8.38
2023-04-20T03:16:46.743Z,8.35
2023-04-20T03:19:14.013Z,8.36
2023-04-20T03:21:41.020Z,7.88
2023-04-20T03:24:07.923Z,8.19
2023-04-20T03:26:34.892Z,8.17
2023-04-20T03:29:01.830Z,7.96
2023-04-20T03:31:28.809Z,7.99
2023-04-20T03:33:55.861Z,8.05
2023-04-20T03:36:22.851Z,7.94
2023-04-20T03:38:49.717Z,7.94
2023-04-20T03:41:16.618Z,8.20
2023-04-20T03:43:43.541Z,8.36
2023-04-20T03:46:10.559Z,8.23
2023-04-20T03:48:37.600Z,7.94
2023-04-20T03:51:04.796Z,8.05
2023-04-20T03:53:31.688Z,8.18
2023-04-20T03:55:58.613Z,8.28
2023-04-20T03:58:25.502Z,8.18
2023-04-20T04:00:52.399Z,8.08
2023-04-20T04:03:19.517Z,8.33
2023-04-20T04:05:46.560Z,8.23
2023-04-20T04:08:13.530Z,8.05
2023-04-20T04:10:40.438Z,8.10
2023-04-20T04:13:07.365Z,8.09
2023-04-20T04:15:34.338Z,8.35
2023-04-20T04:18:01.311Z,8.29
2023-04-20T04:20:28.334Z,8.20
2023-04-20T04:22:55.379Z,8.69
2023-04-20T04:25:23.465Z,8.82
2023-04-20T04:27:51.365Z,8.81
2023-04-20T04:30:20.140Z,9.21
2023-04-20T04:32:47.155Z,9.20
2023-04-20T04:35:14.181Z,9.47
2023-04-20T04:37:41.387Z,9.84
2023-04-20T04:40:09.385Z,10.39
2023-04-20T04:42:36.833Z,11.05
2023-04-20T04:45:05.003Z,11.25
2023-04-20T04:47:36.049Z,11.68
2023-04-20T04:50:07.412Z,11.92
2023-04-20T04:52:34.356Z,12.30
2023-04-20T04:55:01.483Z,12.50
2023-04-20T04:57:28.519Z,12.62
2023-04-20T04:59:55.467Z,12.79
2023-04-20T05:02:22.511Z,13.07
2023-04-20T05:04:49.556Z,13.34
2023-04-20T05:07:17.521Z,13.48
2023-04-20T05:09:44.459Z,13.70
2023-04-20T05:12:11.407Z,14.07
2023-04-20T05:14:38.410Z,14.85
2023-04-20T05:17:05.318Z,14.79
2023-04-20T05:19:32.253Z,14.63
2023-04-20T05:21:59.243Z,14.10
2023-04-20T05:24:26.154Z,13.78
2023-04-20T05:26:53.096Z,13.52
2023-04-20T05:29:20.309Z,13.62
2023-04-20T05:31:47.254Z,13.12
2023-04-20T05:34:14.168Z,13.00
2023-04-20T05:36:41.609Z,13.19
2023-04-20T05:39:08.790Z,13.81
2023-04-20T05:41:35.683Z,14.60
2023-04-20T05:44:02.923Z,15.31
2023-04-20T05:46:29.939Z,16.11
2023-04-20T05:48:57.065Z,15.90
2023-04-20T05:51:26.070Z,16.42
2023-04-20T05:53:53.009Z,16.40
2023-04-20T05:56:20.121Z,16.67
2023-04-20T05:58:47.232Z,16.69
2023-04-20T06:01:14.284Z,16.70
2023-04-20T06:03:41.426Z,16.74
2023-04-20T06:06:08.766Z,16.14
2023-04-20T06:08:38.129Z,16.26
2023-04-20T06:11:05.206Z,16.62
2023-04-20T06:13:32.320Z,16.09
2023-04-20T06:15:59.406Z,16.24
2023-04-20T06:18:26.467Z,15.61
2023-04-20T06:20:53.387Z,15.49
2023-04-20T06:23:20.375Z,15.93
2023-04-20T06:25:47.323Z,15.60
2023-04-20T06:28:14.364Z,15.56
2023-04-20T06:30:41.331Z,15.07
2023-04-20T06:35:37.110Z,15.29
2023-04-20T06:38:04.894Z,15.09
2023-04-20T06:40:31.920Z,15.85
2023-04-20T06:42:58.813Z,15.78
2023-04-20T06:45:25.854Z,16.50
2023-04-20T06:47:52.943Z,16.68
2023-04-20T06:50:19.892Z,16.25
2023-04-20T06:52:48.580Z,15.10
2023-04-20T06:55:15.723Z,15.48
2023-04-20T06:57:44.087Z,16.05
2023-04-20T07:00:12.109Z,16.61
2023-04-20T07:02:46.007Z,16.06
2023-04-20T07:05:13.680Z,17.34
2023-04-20T07:07:40.995Z,17.67
2023-04-20T07:10:09.469Z,16.25
2023-04-20T07:12:37.445Z,17.43
2023-04-20T07:15:05.283Z,18.15
2023-04-20T07:17:32.571Z,17.96
2023-04-20T07:20:06.236Z,17.19
2023-04-20T07:22:34.580Z,18.29
2023-04-20T07:25:03.448Z,18.88
2023-04-20T07:27:30.782Z,19.25
2023-04-20T07:29:59.313Z,19.38
2023-04-20T07:32:26.431Z,19.42
2023-04-20T07:34:53.535Z,18.87
2023-04-20T07:37:20.571Z,18.65
2023-04-20T07:39:47.498Z,18.76
2023-04-20T07:42:14.660Z,18.31
2023-04-20T07:44:41.682Z,18.43
2023-04-20T07:47:08.661Z,19.77
2023-04-20T07:49:40.942Z,20.49
2023-04-20T07:52:16.266Z,20.42
2023-04-20T07:54:43.608Z,19.32
2023-04-20T07:57:11.484Z,19.44
2023-04-20T07:59:38.609Z,19.10
2023-04-20T08:02:06.027Z,19.49
2023-04-20T08:04:33.462Z,18.85
2023-04-20T08:07:01.096Z,19.62
2023-04-20T08:09:28.774Z,19.86
2023-04-20T08:11:56.618Z,19.76
2023-04-20T08:14:23.977Z,21.01
2023-04-20T08:16:51.075Z,20.84
2023-04-20T08:19:18.194Z,20.93
2023-04-20T08:21:45.173Z,20.35
2023-04-20T08:24:13.499Z,20.99
2023-04-20T08:26:40.955Z,20.96
2023-04-20T08:29:07.997Z,21.62
2023-04-20T08:31:35.406Z,20.34
2023-04-20T08:34:02.424Z,21.28
2023-04-20T08:36:29.453Z,20.40
2023-04-20T08:39:08.176Z,21.53
2023-04-20T08:41:36.263Z,22.14
2023-04-20T08:44:03.751Z,22.43
2023-04-20T08:46:31.551Z,23.21
2023-04-20T08:49:01.950Z,23.55
2023-04-20T08:51:29.435Z,23.31
2023-04-20T08:53:57.075Z,23.56
2023-04-20T08:56:38.642Z,23.05
2023-04-20T08:59:10.277Z,23.04
2023-04-20T09:01:42.221Z,21.55
2023-04-20T09:04:20.899Z,21.46
2023-04-20T09:06:51.305Z,21.99
2023-04-20T09:09:23.123Z,22.65
2023-04-20T09:12:10.675Z,22.72
2023-04-20T09:14:45.298Z,23.48
2023-04-20T09:17:14.912Z,23.88
2023-04-20T09:19:45.011Z,24.05
2023-04-20T09:22:12.352Z,24.61
2023-04-20T09:24:41.508Z,24.94
2023-04-20T09:27:19.288Z,25.37
2023-04-20T09:29:58.293Z,25.97
2023-04-20T09:32:26.643Z,26.27
2023-04-20T09:34:53.722Z,23.55
2023-04-20T09:37:21.060Z,23.50
2023-04-20T09:39:48.307Z,22.84
2023-04-20T09:42:16.934Z,23.52
2023-04-20T09:44:44.806Z,23.63
2023-04-20T09:47:21.305Z,22.08
2023-04-20T09:49:48.690Z,22.01
2023-04-20T09:52:19.168Z,22.65
2023-04-20T09:54:46.968Z,23.02
2023-04-20T09:57:14.851Z,24.04
2023-04-20T09:59:47.833Z,24.63
2023-04-20T10:02:15.302Z,22.96
2023-04-20T10:04:56.709Z,23.78
2023-04-20T10:07:28.163Z,23.82
2023-04-20T10:10:05.626Z,23.75
2023-04-20T10:12:33.109Z,23.81
2023-04-20T10:15:01.483Z,24.41
2023-04-20T10:17:34.453Z,23.12
2023-04-20T10:20:01.514Z,23.68
2023-04-20T10:22:33.945Z,24.51
2023-04-20T10:25:14.502Z,23.30
2023-04-20T10:27:56.339Z,23.21
2023-04-20T10:30:24.746Z,22.28
2023-04-20T10:33:10.233Z,21.61
2023-04-20T10:35:52.260Z,21.70
2023-04-20T10:38:29.987Z,21.83
2023-04-20T10:40:57.128Z,23.50
2023-04-20T10:43:24.337Z,23.83
2023-04-20T10:45:51.730Z,24.83
2023-04-20T10:48:19.057Z,25.60
2023-04-20T10:50:46.358Z,26.48
2023-04-20T10:53:24.073Z,26.60
2023-04-20T10:56:01.257Z,27.12
2023-04-20T10:58:28.490Z,27.84
2023-04-20T11:00:59.439Z,28.06
2023-04-20T11:03:29.484Z,28.10
2023-04-20T11:06:01.220Z,27.24
2023-04-20T11:08:42.203Z,25.18
2023-04-20T11:11:25.164Z,24.07
2023-04-20T11:13:52.245Z,23.43
2023-04-20T11:16:20.226Z,23.95
2023-04-20T11:18:53.317Z,24.69
2023-04-20T11:21:21.998Z,25.64
2023-04-20T11:23:50.361Z,26.03
2023-04-20T11:26:17.621Z,26.18
2023-04-20T11:28:55.176Z,26.31
2023-04-20T11:31:23.563Z,26.11
2023-04-20T11:33:50.872Z,26.45
2023-04-20T11:36:23.022Z,26.16
2023-04-20T11:38:50.593Z,26.54
2023-04-20T11:41:18.520Z,27.15
2023-04-20T11:43:46.421Z,27.10
2023-04-20T11:46:15.342Z,26.93
2023-04-20T11:48:42.433Z,27.84
2023-04-20T11:51:09.482Z,27.04
2023-04-20T11:53:36.917Z,26.81
2023-04-20T11:56:05.067Z,27.33
2023-04-20T11:58:32.079Z,27.51
2023-04-20T12:01:00.321Z,28.06
2023-04-20T12:03:27.797Z,28.36
2023-04-20T12:05:55.234Z,28.49
2023-04-20T12:08:24.253Z,29.05
2023-04-20T12:10:51.247Z,28.70
2023-04-20T12:13:21.132Z,27.11
2023-04-20T12:15:48.168Z,27.52
2023-04-20T12:18:15.581Z,28.37
2023-04-20T12:20:42.828Z,28.85
2023-04-20T12:23:09.898Z,28.95
2023-04-20T12:25:36.897Z,28.49
2023-04-20T12:28:07.117Z,26.23
2023-04-20T12:30:35.875Z,26.92
2023-04-20T12:33:04.126Z,26.96
2023-04-20T12:35:31.271Z,25.87
2023-04-20T12:37:58.268Z,26.33
2023-04-20T12:40:25.340Z,26.59
2023-04-20T12:42:52.411Z,26.32
2023-04-20T12:45:19.598Z,24.48
2023-04-20T12:47:46.669Z,24.30
2023-04-20T12:50:13.709Z,23.34
2023-04-20T12:52:40.801Z,21.09
2023-04-20T12:55:08.694Z,20.55
2023-04-20T12:57:36.022Z,21.48
2023-04-20T13:00:03.412Z,21.12
2023-04-20T13:02:31.529Z,22.05
2023-04-20T13:04:58.578Z,22.65
2023-04-20T13:07:25.971Z,23.52
2023-04-20T13:09:53.171Z,24.37
2023-04-20T13:12:20.289Z,25.10
2023-04-20T13:14:47.263Z,25.17
2023-04-20T13:17:14.509Z,24.60
2023-04-20T13:19:41.567Z,23.45
2023-04-20T13:22:08.543Z,23.09
2023-04-20T13:24:35.557Z,24.03
2023-04-20T13:27:02.748Z,24.39
2023-04-20T13:29:29.739Z,23.93
2023-04-20T13:31:56.843Z,24.12
2023-04-20T13:34:23.885Z,24.87
2023-04-20T13:36:51.529Z,25.48
2023-04-20T13:39:20.325Z,25.26
2023-04-20T13:41:49.683Z,25.03
2023-04-20T13:44:17.173Z,25.19
2023-04-20T13:46:46.342Z,25.98
2023-04-20T13:49:13.638Z,25.69
2023-04-20T13:51:40.863Z,25.31
2023-04-20T13:54:07.960Z,24.57
2023-04-20T13:56:35.173Z,23.12
2023-04-20T13:59:04.292Z,22.82
2023-04-20T14:01:31.781Z,23.90
2023-04-20T14:03:59.159Z,24.01
2023-04-20T14:06:27.873Z,23.38
2023-04-20T14:08:55.383Z,22.54
2023-04-20T14:11:22.333Z,23.33
2023-04-20T14:13:49.497Z,23.89
2023-04-20T14:16:16.646Z,24.48
2023-04-20T14:18:43.753Z,25.16
2023-04-20T14:21:10.886Z,25.41
2023-04-20T14:23:37.938Z,25.95
2023-04-20T14:26:05.166Z,25.40
2023-04-20T14:28:33.460Z,24.78
2023-04-20T14:31:02.451Z,24.45
2023-04-20T14:33:29.756Z,25.20
2023-04-20T14:35:56.710Z,24.45
2023-04-20T14:38:24.977Z,24.97
2023-04-20T14:40:52.747Z,24.96
2023-04-20T14:43:19.832Z,24.03
2023-04-20T14:45:47.141Z,24.65
2023-04-20T14:48:14.183Z,24.60
2023-04-20T14:50:41.179Z,25.00
2023-04-20T14:53:08.433Z,23.94
2023-04-20T14:55:35.462Z,23.15
2023-04-20T14:58:02.699Z,23.95
2023-04-20T15:00:29.824Z,24.45
2023-04-20T15:02:57.373Z,24.14
2023-04-20T15:05:28.073Z,24.24
2023-04-20T15:07:55.073Z,24.57
2023-04-20T15:10:22.404Z,22.92
2023-04-20T15:12:49.412Z,23.49
2023-04-20T15:15:17.009Z,23.94
2023-04-20T15:17:46.379Z,22.83
2023-04-20T15:20:15.347Z,22.67
2023-04-20T15:22:42.610Z,23.35
2023-04-20T15:25:10.110Z,22.13
2023-04-20T15:27:37.232Z,21.92
2023-04-20T15:30:05.324Z,22.13
2023-04-20T15:32:35.140Z,22.23
2023-04-20T15:35:02.818Z,22.66
2023-04-20T15:37:29.731Z,22.00
2023-04-20T15:39:56.748Z,22.00
2023-04-20T15:42:23.751Z,22.22
2023-04-20T15:44:50.670Z,22.55
2023-04-20T15:47:17.577Z,21.32
2023-04-20T15:49:44.511Z,21.19
2023-04-20T15:52:11.587Z,21.73
2023-04-20T15:54:38.964Z,21.23
2023-04-20T15:57:06.050Z,20.81
2023-04-20T15:59:33.208Z,21.72
2023-04-20T16:02:00.249Z,22.00
2023-04-20T16:04:27.364Z,22.20
2023-04-20T16:06:55.571Z,22.15
2023-04-20T16:09:23.726Z,21.66
2023-04-20T16:11:51.055Z,22.23
2023-04-20T16:14:18.359Z,21.74
2023-04-20T16:16:45.729Z,20.81
2023-04-20T16:19:14.773Z,21.03
2023-04-20T16:21:41.871Z,20.57
2023-04-20T16:24:08.879Z,20.82
2023-04-20T16:26:36.368Z,20.82
2023-04-20T16:29:03.836Z,21.11
2023-04-20T16:31:31.601Z,21.46
2023-04-20T16:33:59.079Z,21.38
2023-04-20T16:36:27.242Z,21.30
2023-04-20T16:38:54.280Z,21.50
2023-04-20T16:41:21.937Z,21.48
2023-04-20T16:46:22.371Z,21.66
2023-04-20T16:48:50.986Z,21.91
2023-04-20T16:51:17.994Z,22.00
2023-04-20T16:53:45.531Z,22.09
2023-04-20T16:56:13.041Z,22.32
2023-04-20T16:58:39.936Z,22.31
2023-04-20T17:01:08.063Z,22.42
2023-04-20T17:03:35.392Z,22.55
2023-04-20T17:06:07.681Z,22.48
2023-04-20T17:08:34.900Z,22.53
2023-04-20T17:11:04.528Z,22.70
2023-04-20T17:13:31.284Z,22.59
2023-04-20T17:15:58.206Z,22.48
2023-04-20T17:18:25.258Z,22.44
2023-04-20T17:20:52.504Z,22.37
2023-04-20T17:23:19.812Z,22.27
2023-04-20T17:25:47.680Z,22.13
2023-04-20T17:28:14.979Z,21.98
2023-04-20T17:30:42.202Z,21.92
2023-04-20T17:33:10.048Z,21.83
2023-04-20T17:35:38.114Z,21.75
2023-04-20T17:38:05.852Z,21.68
2023-04-20T17:40:32.994Z,21.46
2023-04-20T17:43:00.325Z,21.34
2023-04-20T17:45:27.312Z,21.31
2023-04-20T17:47:54.238Z,21.31
2023-04-20T17:50:22.862Z,19.85
2023-04-20T17:52:49.903Z,19.08
2023-04-20T17:55:16.863Z,19.57
2023-04-20T17:57:43.784Z,19.96
2023-04-20T18:00:11.925Z,19.80
2023-04-20T18:02:39.742Z,19.67
2023-04-20T18:05:07.313Z,19.86
2023-04-20T18:07:34.807Z,19.67
2023-04-20T18:10:01.761Z,19.68
2023-04-20T18:12:28.653Z,19.73
2023-04-20T18:14:55.556Z,19.70
2023-04-20T18:17:23.113Z,19.63
2023-04-20T18:19:50.212Z,19.59
2023-04-20T18:22:17.316Z,19.65
2023-04-20T18:24:44.284Z,19.62
2023-04-20T18:27:11.689Z,19.56
2023-04-20T18:29:38.531Z,19.58
2023-04-20T18:32:05.741Z,19.58
2023-04-20T18:34:32.782Z,19.55
2023-04-20T18:36:59.967Z,19.41
2023-04-20T18:39:26.939Z,19.43
2023-04-20T18:41:53.840Z,19.44
2023-04-20T18:44:21.409Z,19.35
2023-04-20T18:46:48.632Z,19.12
2023-04-20T18:49:16.166Z,18.96
2023-04-20T18:51:43.082Z,18.93
2023-04-20T18:54:10.004Z,18.76
2023-04-20T18:56:38.831Z,18.53
2023-04-20T18:59:06.435Z,18.41
2023-04-20T19:01:35.477Z,18.36
2023-04-20T19:04:02.599Z,18.30
2023-04-20T19:06:29.485Z,18.17
2023-04-20T19:08:56.332Z,18.12
2023-04-20T19:11:23.470Z,18.08
2023-04-20T19:13:50.472Z,18.01
2023-04-20T19:16:17.490Z,17.95
2023-04-20T19:18:45.291Z,17.91
2023-04-20T19:21:12.211Z,17.94
2023-04-20T19:23:39.124Z,17.89
2023-04-20T19:26:06.087Z,17.83
2023-04-20T19:28:33.463Z,17.85
2023-04-20T19:31:00.593Z,17.80
2023-04-20T19:33:27.564Z,17.81
2023-04-20T19:35:54.524Z,17.66
2023-04-20T19:38:24.517Z,17.47
2023-04-20T19:40:52.553Z,16.76
2023-04-20T19:43:19.486Z,17.03
2023-04-20T19:45:46.549Z,16.88
2023-04-20T19:48:13.627Z,16.97
2023-04-20T19:50:41.019Z,16.90
2023-04-20T19:53:08.168Z,16.75
2023-04-20T19:55:35.068Z,16.56
2023-04-20T19:58:02.064Z,16.54
2023-04-20T20:00:28.972Z,16.61
2023-04-20T20:02:56.123Z,16.25
2023-04-20T20:05:23.224Z,16.04
2023-04-20T20:07:50.265Z,16.10
2023-04-20T20:10:17.191Z,16.01
2023-04-20T20:12:45.155Z,16.12
2023-04-20T20:15:12.119Z,15.95
2023-04-20T20:17:39.297Z,15.88
2023-04-20T20:20:06.955Z,15.79
2023-04-20T20:22:34.340Z,15.90
2023-04-20T20:25:01.783Z,15.82
2023-04-20T20:27:29.724Z,15.73
2023-04-20T20:29:56.711Z,15.67
2023-04-20T20:32:25.061Z,15.63
2023-04-20T20:34:53.308Z,15.61
2023-04-20T20:37:21.507Z,15.62
2023-04-20T20:39:48.377Z,15.69
2023-04-20T20:42:15.817Z,15.54
2023-04-20T20:44:42.908Z,15.47
2023-04-20T20:47:09.886Z,15.45
2023-04-20T20:49:36.831Z,15.69
2023-04-20T20:52:03.803Z,15.56
2023-04-20T20:54:30.781Z,15.39
2023-04-20T20:56:57.847Z,15.43
2023-04-20T20:59:24.788Z,15.29
2023-04-20T21:01:51.727Z,14.94
2023-04-20T21:04:18.736Z,15.16
2023-04-20T21:06:45.698Z,15.06
2023-04-20T21:09:14.937Z,14.73
2023-04-20T21:11:41.829Z,14.64
2023-04-20T21:14:08.927Z,14.60
2023-04-20T21:16:36.037Z,14.85
2023-04-20T21:19:03.028Z,14.81
2023-04-20T21:21:29.993Z,14.67
2023-04-20T21:23:56.911Z,14.57
2023-04-20T21:26:23.983Z,14.56
2023-04-20T21:28:50.899Z,14.61
2023-04-20T21:31:17.771Z,14.55
2023-04-20T21:33:44.732Z,14.60
2023-04-20T21:36:11.655Z,14.59
2023-04-20T21:38:38.682Z,14.48
2023-04-20T21:41:05.709Z,14.50
2023-04-20T21:43:32.700Z,14.37
2023-04-20T21:45:59.673Z,14.43
2023-04-20T21:48:26.714Z,14.44
2023-04-20T21:50:53.773Z,14.38
2023-04-20T21:53:20.799Z,14.45
2023-04-20T21:55:47.812Z,14.46
2023-04-20T21:58:14.767Z,14.41
2023-04-20T22:00:41.793Z,14.33
2023-04-20T22:03:08.992Z,14.16
2023-04-20T22:05:36.681Z,14.11
2023-04-20T22:08:04.011Z,14.25
2023-04-20T22:10:30.950Z,14.16
2023-04-20T22:12:57.889Z,13.68
2023-04-20T22:15:26.370Z,13.90
2023-04-20T22:17:53.432Z,13.89
2023-04-20T22:20:20.463Z,13.57
2023-04-20T22:22:47.448Z,13.54
2023-04-20T22:25:14.491Z,13.67
2023-04-20T22:27:41.411Z,13.66
2023-04-20T22:30:09.793Z,13.73
2023-04-20T22:32:38.809Z,13.47
2023-04-20T22:35:06.142Z,13.51
2023-04-20T22:37:33.134Z,13.53
2023-04-20T22:40:00.102Z,13.41
2023-04-20T22:42:27.360Z,13.55
2023-04-20T22:44:54.264Z,13.17
2023-04-20T22:47:21.404Z,12.68
2023-04-20T22:49:49.268Z,12.92
2023-04-20T22:52:16.271Z,12.97
2023-04-20T22:54:48.431Z,12.89
2023-04-20T22:57:16.419Z,12.90
2023-04-20T22:59:43.337Z,12.89
2023-04-20T23:02:10.704Z,12.71
2023-04-20T23:04:40.412Z,12.79
2023-04-20T23:07:08.468Z,12.76
2023-04-20T23:09:40.058Z,12.79
2023-04-20T23:12:11.911Z,12.66
2023-04-20T23:14:42.676Z,12.70
2023-04-20T23:17:10.481Z,12.66
2023-04-20T23:19:38.779Z,12.64
2023-04-20T23:22:09.079Z,12.62
2023-04-20T23:24:36.377Z,12.58
2023-04-20T23:27:03.713Z,12.51
2023-04-20T23:29:30.690Z,12.56
2023-04-20T23:31:57.579Z,12.46
2023-04-20T23:34:24.617Z,12.58
2023-04-20T23:36:54.013Z,12.52
2023-04-20T23:39:21.524Z,12.42
2023-04-20T23:41:48.568Z,12.26
2023-04-20T23:44:15.641Z,11.94
2023-04-20T23:46:42.637Z,11.26
2023-04-20T23:49:09.673Z,11.64
2023-04-20T23:51:36.581Z,11.75
2023-04-20T23:54:03.757Z,11.87
2023-04-20T23:56:30.639Z,12.12
2023-04-20T23:58:59.451Z,12.00
